sensor_id;sensor_type;location;lat;lon;timestamp;P1;durP1;ratioP1;P2;durP2;ratioP2
42600;SDS011;28229;48.856;9.088;2024-01-25T00:00:25;11.70;;;2.67;;
42600;SDS011;28229;48.856;9.088;2024-01-25T00:02:51;14.70;;;3.20;;
42600;SDS011;28229;48.856;9.088;2024-01-25T00:05:17;16.37;;;3.13;;
42600;SDS011;28229;48.856;9.088;2024-01-25T00:07:47;16.50;;;3.03;;
42600;SDS011;28229;48.856;9.088;2024-01-25T00:10:14;14.47;;;3.57;;
42600;SDS011;28229;48.856;9.088;2024-01-25T00:12:42;19.07;;;3.70;;
42600;SDS011;28229;48.856;9.088;2024-01-25T00:15:09;14.67;;;3.13;;
42600;SDS011;28229;48.856;9.088;2024-01-25T00:17:36;15.77;;;3.30;;
42600;SDS011;28229;48.856;9.088;2024-01-25T00:20:03;13.17;;;3.50;;
42600;SDS011;28229;48.856;9.088;2024-01-25T00:22:31;16.23;;;3.03;;
42600;SDS011;28229;48.856;9.088;2024-01-25T00:25:00;17.10;;;3.90;;
42600;SDS011;28229;48.856;9.088;2024-01-25T00:27:26;14.93;;;3.20;;
42600;SDS011;28229;48.856;9.088;2024-01-25T00:29:52;12.93;;;3.37;;
42600;SDS011;28229;48.856;9.088;2024-01-25T00:32:18;20.10;;;3.13;;
42600;SDS011;28229;48.856;9.088;2024-01-25T00:34:45;17.70;;;3.47;;
42600;SDS011;28229;48.856;9.088;2024-01-25T00:37:11;17.17;;;3.73;;
42600;SDS011;28229;48.856;9.088;2024-01-25T00:39:40;17.07;;;4.60;;
42600;SDS011;28229;48.856;9.088;2024-01-25T00:42:07;19.40;;;3.47;;
42600;SDS011;28229;48.856;9.088;2024-01-25T00:44:33;16.77;;;3.57;;
42600;SDS011;28229;48.856;9.088;2024-01-25T00:47:00;15.57;;;3.43;;
42600;SDS011;28229;48.856;9.088;2024-01-25T00:49:26;16.20;;;3.50;;
42600;SDS011;28229;48.856;9.088;2024-01-25T00:51:58;14.97;;;3.20;;
42600;SDS011;28229;48.856;9.088;2024-01-25T00:54:26;12.37;;;3.20;;
42600;SDS011;28229;48.856;9.088;2024-01-25T00:56:52;20.23;;;3.73;;
42600;SDS011;28229;48.856;9.088;2024-01-25T00:59:19;18.30;;;3.20;;
42600;SDS011;28229;48.856;9.088;2024-01-25T01:01:48;15.03;;;4.20;;
42600;SDS011;28229;48.856;9.088;2024-01-25T01:04:18;13.07;;;3.07;;
42600;SDS011;28229;48.856;9.088;2024-01-25T01:06:44;14.83;;;3.37;;
42600;SDS011;28229;48.856;9.088;2024-01-25T01:09:11;16.97;;;3.67;;
42600;SDS011;28229;48.856;9.088;2024-01-25T01:11:37;14.10;;;3.13;;
42600;SDS011;28229;48.856;9.088;2024-01-25T01:14:03;17.80;;;3.60;;
42600;SDS011;28229;48.856;9.088;2024-01-25T01:16:29;14.43;;;3.47;;
42600;SDS011;28229;48.856;9.088;2024-01-25T01:18:58;12.87;;;3.20;;
42600;SDS011;28229;48.856;9.088;2024-01-25T01:21:34;10.90;;;2.67;;
42600;SDS011;28229;48.856;9.088;2024-01-25T01:24:01;18.60;;;3.33;;
42600;SDS011;28229;48.856;9.088;2024-01-25T01:26:28;15.23;;;3.37;;
42600;SDS011;28229;48.856;9.088;2024-01-25T01:28:54;15.90;;;3.67;;
42600;SDS011;28229;48.856;9.088;2024-01-25T01:31:20;12.20;;;2.80;;
42600;SDS011;28229;48.856;9.088;2024-01-25T01:33:46;13.27;;;3.17;;
42600;SDS011;28229;48.856;9.088;2024-01-25T01:36:13;12.57;;;3.10;;
42600;SDS011;28229;48.856;9.088;2024-01-25T01:38:39;13.87;;;2.80;;
42600;SDS011;28229;48.856;9.088;2024-01-25T01:41:06;17.57;;;3.70;;
42600;SDS011;28229;48.856;9.088;2024-01-25T01:43:32;14.37;;;3.43;;
42600;SDS011;28229;48.856;9.088;2024-01-25T01:45:59;13.27;;;3.20;;
42600;SDS011;28229;48.856;9.088;2024-01-25T01:48:31;13.73;;;3.37;;
42600;SDS011;28229;48.856;9.088;2024-01-25T01:50:57;14.60;;;3.10;;
42600;SDS011;28229;48.856;9.088;2024-01-25T01:53:24;17.00;;;3.90;;
42600;SDS011;28229;48.856;9.088;2024-01-25T01:55:50;18.53;;;3.57;;
42600;SDS011;28229;48.856;9.088;2024-01-25T01:58:18;10.87;;;3.33;;
42600;SDS011;28229;48.856;9.088;2024-01-25T02:00:46;14.97;;;3.10;;
42600;SDS011;28229;48.856;9.088;2024-01-25T02:03:14;20.67;;;3.80;;
42600;SDS011;28229;48.856;9.088;2024-01-25T02:05:41;13.27;;;3.20;;
42600;SDS011;28229;48.856;9.088;2024-01-25T02:08:07;15.77;;;3.30;;
42600;SDS011;28229;48.856;9.088;2024-01-25T02:10:35;13.80;;;2.80;;
42600;SDS011;28229;48.856;9.088;2024-01-25T02:13:01;11.77;;;3.07;;
42600;SDS011;28229;48.856;9.088;2024-01-25T02:15:27;13.50;;;3.10;;
42600;SDS011;28229;48.856;9.088;2024-01-25T02:17:53;15.17;;;3.30;;
42600;SDS011;28229;48.856;9.088;2024-01-25T02:20:21;14.10;;;3.30;;
42600;SDS011;28229;48.856;9.088;2024-01-25T02:22:48;12.87;;;3.17;;
42600;SDS011;28229;48.856;9.088;2024-01-25T02:25:14;12.93;;;3.13;;
42600;SDS011;28229;48.856;9.088;2024-01-25T02:27:40;12.40;;;3.10;;
42600;SDS011;28229;48.856;9.088;2024-01-25T02:30:06;13.87;;;3.50;;
42600;SDS011;28229;48.856;9.088;2024-01-25T02:32:33;13.63;;;3.50;;
42600;SDS011;28229;48.856;9.088;2024-01-25T02:34:59;13.57;;;2.97;;
42600;SDS011;28229;48.856;9.088;2024-01-25T02:37:26;10.63;;;2.70;;
42600;SDS011;28229;48.856;9.088;2024-01-25T02:39:52;15.93;;;3.67;;
42600;SDS011;28229;48.856;9.088;2024-01-25T02:42:19;15.73;;;3.17;;
42600;SDS011;28229;48.856;9.088;2024-01-25T02:44:45;15.97;;;3.20;;
42600;SDS011;28229;48.856;9.088;2024-01-25T02:47:11;14.57;;;3.23;;
42600;SDS011;28229;48.856;9.088;2024-01-25T02:49:37;13.13;;;2.90;;
42600;SDS011;28229;48.856;9.088;2024-01-25T02:52:03;12.83;;;3.00;;
42600;SDS011;28229;48.856;9.088;2024-01-25T02:54:29;13.67;;;3.27;;
42600;SDS011;28229;48.856;9.088;2024-01-25T02:56:56;12.87;;;3.57;;
42600;SDS011;28229;48.856;9.088;2024-01-25T02:59:22;15.47;;;3.30;;
42600;SDS011;28229;48.856;9.088;2024-01-25T03:01:48;17.03;;;3.07;;
42600;SDS011;28229;48.856;9.088;2024-01-25T03:04:14;14.50;;;2.73;;
42600;SDS011;28229;48.856;9.088;2024-01-25T03:06:40;13.17;;;3.00;;
42600;SDS011;28229;48.856;9.088;2024-01-25T03:09:06;10.70;;;2.97;;
42600;SDS011;28229;48.856;9.088;2024-01-25T03:11:33;11.47;;;3.07;;
42600;SDS011;28229;48.856;9.088;2024-01-25T03:14:00;11.57;;;2.90;;
42600;SDS011;28229;48.856;9.088;2024-01-25T03:16:26;12.73;;;3.00;;
42600;SDS011;28229;48.856;9.088;2024-01-25T03:18:52;16.10;;;3.00;;
42600;SDS011;28229;48.856;9.088;2024-01-25T03:21:18;15.03;;;3.20;;
42600;SDS011;28229;48.856;9.088;2024-01-25T03:23:44;14.13;;;3.37;;
42600;SDS011;28229;48.856;9.088;2024-01-25T03:26:10;9.80;;;2.80;;
42600;SDS011;28229;48.856;9.088;2024-01-25T03:28:36;11.70;;;3.10;;
42600;SDS011;28229;48.856;9.088;2024-01-25T03:31:04;15.33;;;3.43;;
42600;SDS011;28229;48.856;9.088;2024-01-25T03:33:30;12.43;;;3.10;;
42600;SDS011;28229;48.856;9.088;2024-01-25T03:36:01;10.63;;;3.13;;
42600;SDS011;28229;48.856;9.088;2024-01-25T03:38:31;11.83;;;3.60;;
42600;SDS011;28229;48.856;9.088;2024-01-25T03:40:57;14.80;;;3.20;;
42600;SDS011;28229;48.856;9.088;2024-01-25T03:43:24;16.30;;;3.07;;
42600;SDS011;28229;48.856;9.088;2024-01-25T03:45:51;12.10;;;2.93;;
42600;SDS011;28229;48.856;9.088;2024-01-25T03:48:17;13.60;;;3.50;;
42600;SDS011;28229;48.856;9.088;2024-01-25T03:50:43;17.10;;;3.30;;
42600;SDS011;28229;48.856;9.088;2024-01-25T03:53:10;19.43;;;3.07;;
42600;SDS011;28229;48.856;9.088;2024-01-25T03:55:36;13.67;;;2.93;;
42600;SDS011;28229;48.856;9.088;2024-01-25T03:58:02;14.57;;;3.50;;
42600;SDS011;28229;48.856;9.088;2024-01-25T04:00:28;14.30;;;3.33;;
42600;SDS011;28229;48.856;9.088;2024-01-25T04:02:54;14.73;;;3.33;;
42600;SDS011;28229;48.856;9.088;2024-01-25T04:05:21;12.60;;;3.40;;
42600;SDS011;28229;48.856;9.088;2024-01-25T04:07:47;11.07;;;2.63;;
42600;SDS011;28229;48.856;9.088;2024-01-25T04:10:13;10.70;;;3.00;;
42600;SDS011;28229;48.856;9.088;2024-01-25T04:12:39;12.63;;;3.10;;
42600;SDS011;28229;48.856;9.088;2024-01-25T04:15:06;17.53;;;3.60;;
42600;SDS011;28229;48.856;9.088;2024-01-25T04:17:32;12.13;;;3.17;;
42600;SDS011;28229;48.856;9.088;2024-01-25T04:19:58;15.47;;;3.20;;
42600;SDS011;28229;48.856;9.088;2024-01-25T04:22:24;18.37;;;3.50;;
42600;SDS011;28229;48.856;9.088;2024-01-25T04:24:50;10.53;;;3.13;;
42600;SDS011;28229;48.856;9.088;2024-01-25T04:27:17;11.00;;;3.17;;
42600;SDS011;28229;48.856;9.088;2024-01-25T04:29:45;12.77;;;3.50;;
42600;SDS011;28229;48.856;9.088;2024-01-25T04:32:12;15.07;;;3.43;;
42600;SDS011;28229;48.856;9.088;2024-01-25T04:34:38;14.83;;;3.40;;
42600;SDS011;28229;48.856;9.088;2024-01-25T04:37:04;12.77;;;3.53;;
42600;SDS011;28229;48.856;9.088;2024-01-25T04:39:30;14.10;;;3.37;;
42600;SDS011;28229;48.856;9.088;2024-01-25T04:41:56;10.37;;;2.87;;
42600;SDS011;28229;48.856;9.088;2024-01-25T04:44:23;13.93;;;3.53;;
42600;SDS011;28229;48.856;9.088;2024-01-25T04:46:49;15.63;;;3.20;;
42600;SDS011;28229;48.856;9.088;2024-01-25T04:49:15;15.67;;;3.60;;
42600;SDS011;28229;48.856;9.088;2024-01-25T04:51:42;15.93;;;4.20;;
42600;SDS011;28229;48.856;9.088;2024-01-25T04:54:08;15.87;;;3.57;;
42600;SDS011;28229;48.856;9.088;2024-01-25T04:56:38;13.70;;;3.23;;
42600;SDS011;28229;48.856;9.088;2024-01-25T04:59:04;15.87;;;3.40;;
42600;SDS011;28229;48.856;9.088;2024-01-25T05:01:31;12.77;;;3.37;;
42600;SDS011;28229;48.856;9.088;2024-01-25T05:03:57;14.23;;;3.20;;
42600;SDS011;28229;48.856;9.088;2024-01-25T05:06:23;13.47;;;2.73;;
42600;SDS011;28229;48.856;9.088;2024-01-25T05:08:49;12.63;;;3.40;;
42600;SDS011;28229;48.856;9.088;2024-01-25T05:11:15;13.23;;;3.00;;
42600;SDS011;28229;48.856;9.088;2024-01-25T05:13:41;13.53;;;3.33;;
42600;SDS011;28229;48.856;9.088;2024-01-25T05:16:07;15.63;;;3.50;;
42600;SDS011;28229;48.856;9.088;2024-01-25T05:18:34;15.67;;;3.17;;
42600;SDS011;28229;48.856;9.088;2024-01-25T05:21:00;9.97;;;2.77;;
42600;SDS011;28229;48.856;9.088;2024-01-25T05:23:26;16.50;;;3.77;;
42600;SDS011;28229;48.856;9.088;2024-01-25T05:25:52;9.40;;;2.77;;
42600;SDS011;28229;48.856;9.088;2024-01-25T05:28:18;15.10;;;3.10;;
42600;SDS011;28229;48.856;9.088;2024-01-25T05:30:45;13.83;;;3.10;;
42600;SDS011;28229;48.856;9.088;2024-01-25T05:33:11;14.90;;;3.50;;
42600;SDS011;28229;48.856;9.088;2024-01-25T05:35:37;16.67;;;3.27;;
42600;SDS011;28229;48.856;9.088;2024-01-25T05:38:03;13.40;;;3.30;;
42600;SDS011;28229;48.856;9.088;2024-01-25T05:40:29;12.87;;;3.17;;
42600;SDS011;28229;48.856;9.088;2024-01-25T05:42:56;14.73;;;3.77;;
42600;SDS011;28229;48.856;9.088;2024-01-25T05:45:22;11.60;;;2.90;;
42600;SDS011;28229;48.856;9.088;2024-01-25T05:47:49;8.43;;;2.47;;
42600;SDS011;28229;48.856;9.088;2024-01-25T05:50:15;12.17;;;2.97;;
42600;SDS011;28229;48.856;9.088;2024-01-25T05:52:41;10.83;;;3.00;;
42600;SDS011;28229;48.856;9.088;2024-01-25T05:55:07;13.07;;;3.20;;
42600;SDS011;28229;48.856;9.088;2024-01-25T05:57:34;11.27;;;2.67;;
42600;SDS011;28229;48.856;9.088;2024-01-25T06:00:02;10.87;;;3.17;;
42600;SDS011;28229;48.856;9.088;2024-01-25T06:02:34;12.13;;;3.03;;
42600;SDS011;28229;48.856;9.088;2024-01-25T06:05:00;11.70;;;3.30;;
42600;SDS011;28229;48.856;9.088;2024-01-25T06:07:27;11.27;;;3.07;;
42600;SDS011;28229;48.856;9.088;2024-01-25T06:09:53;11.73;;;3.20;;
42600;SDS011;28229;48.856;9.088;2024-01-25T06:12:20;10.60;;;3.20;;
42600;SDS011;28229;48.856;9.088;2024-01-25T06:14:46;13.87;;;3.47;;
42600;SDS011;28229;48.856;9.088;2024-01-25T06:17:12;15.43;;;3.47;;
42600;SDS011;28229;48.856;9.088;2024-01-25T06:19:38;14.83;;;3.13;;
42600;SDS011;28229;48.856;9.088;2024-01-25T06:22:04;11.03;;;3.10;;
42600;SDS011;28229;48.856;9.088;2024-01-25T06:24:30;13.70;;;3.53;;
42600;SDS011;28229;48.856;9.088;2024-01-25T06:26:57;15.97;;;3.13;;
42600;SDS011;28229;48.856;9.088;2024-01-25T06:29:23;11.93;;;3.50;;
42600;SDS011;28229;48.856;9.088;2024-01-25T06:31:50;12.33;;;3.20;;
42600;SDS011;28229;48.856;9.088;2024-01-25T06:34:16;12.13;;;3.27;;
42600;SDS011;28229;48.856;9.088;2024-01-25T06:36:43;12.87;;;3.40;;
42600;SDS011;28229;48.856;9.088;2024-01-25T06:39:09;17.27;;;3.73;;
42600;SDS011;28229;48.856;9.088;2024-01-25T06:41:35;14.50;;;3.77;;
42600;SDS011;28229;48.856;9.088;2024-01-25T06:44:02;13.50;;;3.50;;
42600;SDS011;28229;48.856;9.088;2024-01-25T06:46:28;18.57;;;3.90;;
42600;SDS011;28229;48.856;9.088;2024-01-25T06:48:54;14.80;;;3.67;;
42600;SDS011;28229;48.856;9.088;2024-01-25T06:51:20;14.37;;;3.47;;
42600;SDS011;28229;48.856;9.088;2024-01-25T06:53:47;18.73;;;4.47;;
42600;SDS011;28229;48.856;9.088;2024-01-25T06:56:13;15.83;;;4.07;;
42600;SDS011;28229;48.856;9.088;2024-01-25T06:58:39;14.30;;;2.87;;
42600;SDS011;28229;48.856;9.088;2024-01-25T07:01:05;12.93;;;3.20;;
42600;SDS011;28229;48.856;9.088;2024-01-25T07:03:31;17.60;;;3.87;;
42600;SDS011;28229;48.856;9.088;2024-01-25T07:05:58;15.00;;;3.37;;
42600;SDS011;28229;48.856;9.088;2024-01-25T07:08:24;13.73;;;3.53;;
42600;SDS011;28229;48.856;9.088;2024-01-25T07:10:50;18.43;;;3.60;;
42600;SDS011;28229;48.856;9.088;2024-01-25T07:13:16;11.77;;;3.40;;
42600;SDS011;28229;48.856;9.088;2024-01-25T07:15:42;13.27;;;3.27;;
42600;SDS011;28229;48.856;9.088;2024-01-25T07:18:09;16.57;;;3.23;;
42600;SDS011;28229;48.856;9.088;2024-01-25T07:20:35;13.20;;;2.93;;
42600;SDS011;28229;48.856;9.088;2024-01-25T07:23:01;20.40;;;3.67;;
42600;SDS011;28229;48.856;9.088;2024-01-25T07:25:27;18.80;;;3.50;;
42600;SDS011;28229;48.856;9.088;2024-01-25T07:27:53;13.53;;;3.27;;
42600;SDS011;28229;48.856;9.088;2024-01-25T07:30:19;12.77;;;3.37;;
42600;SDS011;28229;48.856;9.088;2024-01-25T07:32:45;14.63;;;3.10;;
42600;SDS011;28229;48.856;9.088;2024-01-25T07:35:12;12.60;;;3.30;;
42600;SDS011;28229;48.856;9.088;2024-01-25T07:37:39;16.03;;;3.80;;
42600;SDS011;28229;48.856;9.088;2024-01-25T07:40:06;13.27;;;3.27;;
42600;SDS011;28229;48.856;9.088;2024-01-25T07:42:34;15.33;;;3.73;;
42600;SDS011;28229;48.856;9.088;2024-01-25T07:45:00;18.23;;;3.57;;
42600;SDS011;28229;48.856;9.088;2024-01-25T07:47:27;12.50;;;3.30;;
42600;SDS011;28229;48.856;9.088;2024-01-25T07:49:53;14.33;;;3.70;;
42600;SDS011;28229;48.856;9.088;2024-01-25T07:52:19;14.20;;;3.13;;
42600;SDS011;28229;48.856;9.088;2024-01-25T07:54:45;19.87;;;4.00;;
42600;SDS011;28229;48.856;9.088;2024-01-25T07:57:11;13.17;;;3.77;;
42600;SDS011;28229;48.856;9.088;2024-01-25T07:59:37;12.07;;;3.53;;
42600;SDS011;28229;48.856;9.088;2024-01-25T08:02:04;15.70;;;3.50;;
42600;SDS011;28229;48.856;9.088;2024-01-25T08:04:30;15.53;;;3.70;;
42600;SDS011;28229;48.856;9.088;2024-01-25T08:06:57;19.80;;;3.40;;
42600;SDS011;28229;48.856;9.088;2024-01-25T08:09:24;14.97;;;3.53;;
42600;SDS011;28229;48.856;9.088;2024-01-25T08:11:50;17.53;;;3.67;;
42600;SDS011;28229;48.856;9.088;2024-01-25T08:14:17;14.97;;;3.57;;
42600;SDS011;28229;48.856;9.088;2024-01-25T08:16:46;10.73;;;3.20;;
42600;SDS011;28229;48.856;9.088;2024-01-25T08:19:12;20.57;;;4.43;;
42600;SDS011;28229;48.856;9.088;2024-01-25T08:21:38;11.10;;;3.00;;
42600;SDS011;28229;48.856;9.088;2024-01-25T08:24:04;13.87;;;3.97;;
42600;SDS011;28229;48.856;9.088;2024-01-25T08:26:30;17.97;;;3.93;;
42600;SDS011;28229;48.856;9.088;2024-01-25T08:28:57;15.80;;;3.10;;
42600;SDS011;28229;48.856;9.088;2024-01-25T08:31:23;11.83;;;3.20;;
42600;SDS011;28229;48.856;9.088;2024-01-25T08:33:49;14.47;;;3.87;;
42600;SDS011;28229;48.856;9.088;2024-01-25T08:36:18;15.00;;;3.90;;
42600;SDS011;28229;48.856;9.088;2024-01-25T08:38:45;18.53;;;4.20;;
42600;SDS011;28229;48.856;9.088;2024-01-25T08:41:11;13.87;;;3.40;;
42600;SDS011;28229;48.856;9.088;2024-01-25T08:43:40;16.33;;;3.37;;
42600;SDS011;28229;48.856;9.088;2024-01-25T08:46:06;17.30;;;3.47;;
42600;SDS011;28229;48.856;9.088;2024-01-25T08:48:32;14.53;;;4.03;;
42600;SDS011;28229;48.856;9.088;2024-01-25T08:50:59;19.40;;;3.90;;
42600;SDS011;28229;48.856;9.088;2024-01-25T08:53:25;15.73;;;3.67;;
42600;SDS011;28229;48.856;9.088;2024-01-25T08:55:54;12.53;;;3.50;;
42600;SDS011;28229;48.856;9.088;2024-01-25T08:58:21;13.60;;;3.63;;
42600;SDS011;28229;48.856;9.088;2024-01-25T09:00:47;12.10;;;3.30;;
42600;SDS011;28229;48.856;9.088;2024-01-25T09:03:14;14.83;;;3.20;;
42600;SDS011;28229;48.856;9.088;2024-01-25T09:05:41;14.70;;;3.40;;
42600;SDS011;28229;48.856;9.088;2024-01-25T09:08:11;15.13;;;3.80;;
42600;SDS011;28229;48.856;9.088;2024-01-25T09:10:40;9.87;;;2.97;;
42600;SDS011;28229;48.856;9.088;2024-01-25T09:13:08;11.70;;;3.50;;
42600;SDS011;28229;48.856;9.088;2024-01-25T09:15:34;14.53;;;3.60;;
42600;SDS011;28229;48.856;9.088;2024-01-25T09:18:00;15.70;;;3.60;;
42600;SDS011;28229;48.856;9.088;2024-01-25T09:20:27;15.53;;;3.67;;
42600;SDS011;28229;48.856;9.088;2024-01-25T09:22:53;15.07;;;3.73;;
42600;SDS011;28229;48.856;9.088;2024-01-25T09:25:22;16.27;;;3.37;;
42600;SDS011;28229;48.856;9.088;2024-01-25T09:27:49;13.33;;;3.90;;
42600;SDS011;28229;48.856;9.088;2024-01-25T09:30:15;14.93;;;3.83;;
42600;SDS011;28229;48.856;9.088;2024-01-25T09:32:41;15.33;;;3.60;;
42600;SDS011;28229;48.856;9.088;2024-01-25T09:35:07;14.27;;;3.00;;
42600;SDS011;28229;48.856;9.088;2024-01-25T09:37:34;14.83;;;3.50;;
42600;SDS011;28229;48.856;9.088;2024-01-25T09:40:00;15.93;;;3.40;;
42600;SDS011;28229;48.856;9.088;2024-01-25T09:42:26;13.37;;;3.57;;
42600;SDS011;28229;48.856;9.088;2024-01-25T09:44:53;10.03;;;3.23;;
42600;SDS011;28229;48.856;9.088;2024-01-25T09:47:20;15.50;;;3.60;;
42600;SDS011;28229;48.856;9.088;2024-01-25T09:49:47;15.53;;;3.27;;
42600;SDS011;28229;48.856;9.088;2024-01-25T09:52:14;12.10;;;3.40;;
42600;SDS011;28229;48.856;9.088;2024-01-25T09:54:41;15.33;;;3.93;;
42600;SDS011;28229;48.856;9.088;2024-01-25T09:57:13;14.37;;;3.63;;
42600;SDS011;28229;48.856;9.088;2024-01-25T09:59:44;16.73;;;3.10;;
42600;SDS011;28229;48.856;9.088;2024-01-25T10:02:11;14.17;;;3.43;;
42600;SDS011;28229;48.856;9.088;2024-01-25T10:04:37;11.67;;;3.17;;
42600;SDS011;28229;48.856;9.088;2024-01-25T10:07:04;11.03;;;3.33;;
42600;SDS011;28229;48.856;9.088;2024-01-25T10:09:42;13.07;;;3.33;;
42600;SDS011;28229;48.856;9.088;2024-01-25T10:12:09;12.90;;;3.70;;
42600;SDS011;28229;48.856;9.088;2024-01-25T10:14:35;12.73;;;3.57;;
42600;SDS011;28229;48.856;9.088;2024-01-25T10:17:01;11.40;;;3.40;;
42600;SDS011;28229;48.856;9.088;2024-01-25T10:19:28;11.63;;;3.27;;
42600;SDS011;28229;48.856;9.088;2024-01-25T10:21:55;13.80;;;3.70;;
42600;SDS011;28229;48.856;9.088;2024-01-25T10:24:22;11.20;;;3.33;;
42600;SDS011;28229;48.856;9.088;2024-01-25T10:26:48;10.80;;;3.17;;
42600;SDS011;28229;48.856;9.088;2024-01-25T10:29:15;12.73;;;3.17;;
42600;SDS011;28229;48.856;9.088;2024-01-25T10:31:41;11.30;;;3.00;;
42600;SDS011;28229;48.856;9.088;2024-01-25T10:34:09;11.93;;;3.60;;
42600;SDS011;28229;48.856;9.088;2024-01-25T10:36:39;13.87;;;3.60;;
42600;SDS011;28229;48.856;9.088;2024-01-25T10:39:06;14.60;;;3.87;;
42600;SDS011;28229;48.856;9.088;2024-01-25T10:41:34;15.97;;;4.20;;
42600;SDS011;28229;48.856;9.088;2024-01-25T10:44:01;12.27;;;3.17;;
42600;SDS011;28229;48.856;9.088;2024-01-25T10:46:28;10.73;;;3.30;;
42600;SDS011;28229;48.856;9.088;2024-01-25T10:48:57;16.50;;;3.83;;
42600;SDS011;28229;48.856;9.088;2024-01-25T10:51:27;12.47;;;3.00;;
42600;SDS011;28229;48.856;9.088;2024-01-25T10:53:55;15.43;;;3.43;;
42600;SDS011;28229;48.856;9.088;2024-01-25T10:56:21;10.47;;;3.17;;
42600;SDS011;28229;48.856;9.088;2024-01-25T10:58:47;11.00;;;3.10;;
42600;SDS011;28229;48.856;9.088;2024-01-25T11:01:16;9.87;;;2.97;;
42600;SDS011;28229;48.856;9.088;2024-01-25T11:03:46;9.47;;;3.00;;
42600;SDS011;28229;48.856;9.088;2024-01-25T11:06:13;13.13;;;2.97;;
42600;SDS011;28229;48.856;9.088;2024-01-25T11:08:40;10.10;;;2.70;;
42600;SDS011;28229;48.856;9.088;2024-01-25T11:11:07;9.97;;;2.60;;
42600;SDS011;28229;48.856;9.088;2024-01-25T11:13:42;8.80;;;2.40;;
42600;SDS011;28229;48.856;9.088;2024-01-25T11:18:55;9.80;;;2.60;;
42600;SDS011;28229;48.856;9.088;2024-01-25T11:21:25;17.30;;;3.40;;
42600;SDS011;28229;48.856;9.088;2024-01-25T11:24:00;9.57;;;3.03;;
42600;SDS011;28229;48.856;9.088;2024-01-25T11:26:27;10.57;;;3.40;;
42600;SDS011;28229;48.856;9.088;2024-01-25T11:28:54;16.50;;;3.27;;
42600;SDS011;28229;48.856;9.088;2024-01-25T11:31:21;10.47;;;3.00;;
42600;SDS011;28229;48.856;9.088;2024-01-25T11:33:49;10.17;;;2.97;;
42600;SDS011;28229;48.856;9.088;2024-01-25T11:36:19;10.80;;;2.87;;
42600;SDS011;28229;48.856;9.088;2024-01-25T11:38:46;10.37;;;2.87;;
42600;SDS011;28229;48.856;9.088;2024-01-25T11:41:12;11.27;;;3.13;;
42600;SDS011;28229;48.856;9.088;2024-01-25T11:43:39;11.77;;;2.97;;
42600;SDS011;28229;48.856;9.088;2024-01-25T11:46:06;10.20;;;2.80;;
42600;SDS011;28229;48.856;9.088;2024-01-25T11:48:32;9.10;;;2.70;;
42600;SDS011;28229;48.856;9.088;2024-01-25T11:51:02;11.47;;;2.97;;
42600;SDS011;28229;48.856;9.088;2024-01-25T11:53:28;8.30;;;2.40;;
42600;SDS011;28229;48.856;9.088;2024-01-25T11:55:54;11.63;;;2.80;;
42600;SDS011;28229;48.856;9.088;2024-01-25T11:58:22;7.63;;;2.73;;
42600;SDS011;28229;48.856;9.088;2024-01-25T12:00:49;7.47;;;2.97;;
42600;SDS011;28229;48.856;9.088;2024-01-25T12:03:18;9.03;;;2.70;;
42600;SDS011;28229;48.856;9.088;2024-01-25T12:05:45;7.67;;;2.40;;
42600;SDS011;28229;48.856;9.088;2024-01-25T12:08:12;6.90;;;2.30;;
42600;SDS011;28229;48.856;9.088;2024-01-25T12:10:39;8.17;;;2.33;;
42600;SDS011;28229;48.856;9.088;2024-01-25T12:13:08;9.00;;;2.27;;
42600;SDS011;28229;48.856;9.088;2024-01-25T12:15:35;9.47;;;2.70;;
42600;SDS011;28229;48.856;9.088;2024-01-25T12:18:04;11.93;;;2.73;;
42600;SDS011;28229;48.856;9.088;2024-01-25T12:20:31;9.63;;;2.80;;
42600;SDS011;28229;48.856;9.088;2024-01-25T12:22:58;9.87;;;2.57;;
42600;SDS011;28229;48.856;9.088;2024-01-25T12:25:24;6.07;;;2.07;;
42600;SDS011;28229;48.856;9.088;2024-01-25T12:27:50;8.93;;;2.43;;
42600;SDS011;28229;48.856;9.088;2024-01-25T12:30:16;15.33;;;3.50;;
42600;SDS011;28229;48.856;9.088;2024-01-25T12:32:43;12.23;;;2.70;;
42600;SDS011;28229;48.856;9.088;2024-01-25T12:35:09;6.43;;;2.40;;
42600;SDS011;28229;48.856;9.088;2024-01-25T12:37:35;11.63;;;2.80;;
42600;SDS011;28229;48.856;9.088;2024-01-25T12:40:01;9.90;;;2.67;;
42600;SDS011;28229;48.856;9.088;2024-01-25T12:42:28;8.30;;;2.63;;
42600;SDS011;28229;48.856;9.088;2024-01-25T12:44:54;7.47;;;2.67;;
42600;SDS011;28229;48.856;9.088;2024-01-25T12:47:20;7.07;;;2.63;;
42600;SDS011;28229;48.856;9.088;2024-01-25T12:49:46;7.77;;;2.53;;
42600;SDS011;28229;48.856;9.088;2024-01-25T12:52:13;7.27;;;2.20;;
42600;SDS011;28229;48.856;9.088;2024-01-25T12:54:41;9.07;;;2.50;;
42600;SDS011;28229;48.856;9.088;2024-01-25T12:57:07;6.20;;;2.40;;
42600;SDS011;28229;48.856;9.088;2024-01-25T12:59:34;5.60;;;2.03;;
42600;SDS011;28229;48.856;9.088;2024-01-25T13:02:02;6.10;;;2.17;;
42600;SDS011;28229;48.856;9.088;2024-01-25T13:04:29;6.20;;;2.13;;
42600;SDS011;28229;48.856;9.088;2024-01-25T13:06:55;5.93;;;2.10;;
42600;SDS011;28229;48.856;9.088;2024-01-25T13:09:22;5.43;;;2.10;;
42600;SDS011;28229;48.856;9.088;2024-01-25T13:11:50;7.00;;;2.30;;
42600;SDS011;28229;48.856;9.088;2024-01-25T13:14:18;8.27;;;2.40;;
42600;SDS011;28229;48.856;9.088;2024-01-25T13:16:44;7.83;;;2.53;;
42600;SDS011;28229;48.856;9.088;2024-01-25T13:19:11;6.27;;;1.93;;
42600;SDS011;28229;48.856;9.088;2024-01-25T13:21:40;7.47;;;2.50;;
42600;SDS011;28229;48.856;9.088;2024-01-25T13:24:07;5.67;;;1.90;;
42600;SDS011;28229;48.856;9.088;2024-01-25T13:26:35;4.70;;;1.80;;
42600;SDS011;28229;48.856;9.088;2024-01-25T13:29:01;8.50;;;2.30;;
42600;SDS011;28229;48.856;9.088;2024-01-25T13:31:28;4.93;;;2.00;;
42600;SDS011;28229;48.856;9.088;2024-01-25T13:33:54;7.17;;;2.13;;
42600;SDS011;28229;48.856;9.088;2024-01-25T13:36:20;6.30;;;2.30;;
42600;SDS011;28229;48.856;9.088;2024-01-25T13:38:46;6.87;;;2.30;;
42600;SDS011;28229;48.856;9.088;2024-01-25T13:41:12;6.17;;;2.10;;
42600;SDS011;28229;48.856;9.088;2024-01-25T13:43:38;8.17;;;2.67;;
42600;SDS011;28229;48.856;9.088;2024-01-25T13:46:04;6.53;;;2.20;;
42600;SDS011;28229;48.856;9.088;2024-01-25T13:48:31;6.67;;;2.27;;
42600;SDS011;28229;48.856;9.088;2024-01-25T13:50:57;7.70;;;2.50;;
42600;SDS011;28229;48.856;9.088;2024-01-25T13:53:23;9.00;;;2.27;;
42600;SDS011;28229;48.856;9.088;2024-01-25T13:55:49;7.70;;;2.53;;
42600;SDS011;28229;48.856;9.088;2024-01-25T13:58:15;7.27;;;2.30;;
42600;SDS011;28229;48.856;9.088;2024-01-25T14:00:42;6.67;;;2.33;;
42600;SDS011;28229;48.856;9.088;2024-01-25T14:03:08;8.70;;;2.43;;
42600;SDS011;28229;48.856;9.088;2024-01-25T14:05:34;7.17;;;2.23;;
42600;SDS011;28229;48.856;9.088;2024-01-25T14:08:00;8.27;;;2.40;;
42600;SDS011;28229;48.856;9.088;2024-01-25T14:10:26;10.27;;;2.30;;
42600;SDS011;28229;48.856;9.088;2024-01-25T14:12:53;8.30;;;2.60;;
42600;SDS011;28229;48.856;9.088;2024-01-25T14:15:20;6.67;;;2.00;;
42600;SDS011;28229;48.856;9.088;2024-01-25T14:17:46;9.77;;;2.70;;
42600;SDS011;28229;48.856;9.088;2024-01-25T14:20:12;4.47;;;2.00;;
42600;SDS011;28229;48.856;9.088;2024-01-25T14:22:39;8.57;;;2.57;;
42600;SDS011;28229;48.856;9.088;2024-01-25T14:25:05;6.13;;;2.13;;
42600;SDS011;28229;48.856;9.088;2024-01-25T14:27:37;6.63;;;2.30;;
42600;SDS011;28229;48.856;9.088;2024-01-25T14:30:04;9.40;;;2.40;;
42600;SDS011;28229;48.856;9.088;2024-01-25T14:32:31;7.23;;;2.30;;
42600;SDS011;28229;48.856;9.088;2024-01-25T14:34:57;5.93;;;2.20;;
42600;SDS011;28229;48.856;9.088;2024-01-25T14:37:24;7.83;;;2.27;;